createdAt,value
2018-11-06T00:00:29.291Z,28.10
2018-11-06T00:03:03.321Z,30.27
2018-11-06T00:05:32.134Z,30.23
2018-11-06T00:08:01.239Z,30.43
2018-11-06T00:10:31.863Z,28.13
2018-11-06T00:15:44.279Z,26.53
2018-11-06T00:18:19.930Z,27.93
2018-11-06T00:20:48.618Z,27.13
2018-11-06T00:23:17.237Z,27.23
2018-11-06T00:25:45.966Z,25.93
2018-11-06T00:28:15.027Z,25.57
2018-11-06T00:30:43.886Z,25.43
2018-11-06T00:33:12.543Z,26.07
2018-11-06T00:35:42.058Z,24.80
2018-11-06T00:38:10.941Z,27.13
2018-11-06T00:40:39.538Z,27.83
2018-11-06T00:43:08.214Z,26.23
2018-11-06T00:45:37.023Z,26.80
2018-11-06T00:48:06.375Z,27.20
2018-11-06T00:50:35.321Z,28.70
2018-11-06T00:53:04.090Z,26.97
2018-11-06T00:55:33.302Z,27.40
2018-11-06T00:58:01.991Z,29.80
2018-11-06T01:00:32.233Z,27.80
2018-11-06T01:03:01.229Z,29.17
2018-11-06T01:05:29.948Z,26.63
2018-11-06T01:07:58.717Z,27.43
2018-11-06T01:10:27.650Z,28.07
2018-11-06T01:12:58.280Z,27.57
2018-11-06T01:15:26.986Z,27.87
2018-11-06T01:17:55.674Z,26.80
2018-11-06T01:20:24.441Z,27.90
2018-11-06T01:22:53.125Z,28.50
2018-11-06T01:25:21.876Z,26.93
2018-11-06T01:27:50.684Z,25.37
2018-11-06T01:30:20.693Z,27.43
2018-11-06T01:32:49.533Z,26.50
2018-11-06T01:35:19.105Z,27.70
2018-11-06T01:37:47.932Z,26.73
2018-11-06T01:40:17.767Z,26.50
2018-11-06T01:42:53.964Z,24.83
2018-11-06T01:45:25.027Z,25.43
2018-11-06T01:47:53.825Z,25.00
2018-11-06T01:50:22.745Z,24.47
2018-11-06T01:52:51.539Z,24.50
2018-11-06T01:55:20.415Z,22.03
2018-11-06T01:57:49.170Z,24.17
2018-11-06T02:00:30.065Z,24.17
2018-11-06T02:02:59.336Z,23.97
2018-11-06T02:05:28.365Z,23.30
2018-11-06T02:07:57.429Z,24.13
2018-11-06T02:10:26.170Z,24.33
2018-11-06T02:12:54.938Z,22.43
2018-11-06T02:15:23.748Z,24.20
2018-11-06T02:17:52.715Z,22.67
2018-11-06T02:20:21.528Z,23.27
2018-11-06T02:22:50.338Z,21.10
2018-11-06T02:25:19.318Z,26.27
2018-11-06T02:27:48.400Z,22.00
2018-11-06T02:30:17.931Z,21.90
2018-11-06T02:32:47.184Z,22.73
2018-11-06T02:35:16.236Z,21.97
2018-11-06T02:37:44.905Z,23.13
2018-11-06T02:40:14.662Z,21.63
2018-11-06T02:42:43.437Z,20.87
2018-11-06T02:45:13.052Z,22.87
2018-11-06T02:47:42.460Z,23.20
2018-11-06T02:50:11.926Z,22.00
2018-11-06T02:52:41.390Z,19.33
2018-11-06T02:55:11.026Z,21.97
2018-11-06T02:57:40.211Z,19.80
2018-11-06T03:00:11.622Z,18.67
2018-11-06T03:02:40.392Z,19.50
2018-11-06T03:05:09.835Z,20.60
2018-11-06T03:07:38.937Z,22.87
2018-11-06T03:10:09.286Z,20.70
2018-11-06T03:12:38.337Z,19.77
2018-11-06T03:15:07.829Z,20.20
2018-11-06T03:17:36.733Z,18.43
2018-11-06T03:20:05.536Z,18.33
2018-11-06T03:22:34.160Z,20.23
2018-11-06T03:25:03.187Z,18.47
2018-11-06T03:27:31.932Z,18.93
2018-11-06T03:30:00.760Z,17.97
2018-11-06T03:32:29.502Z,17.60
2018-11-06T03:34:58.183Z,16.87
2018-11-06T03:37:26.979Z,16.33
2018-11-06T03:39:57.539Z,17.53
2018-11-06T03:42:26.182Z,16.80
2018-11-06T03:44:54.976Z,17.20
2018-11-06T03:47:23.845Z,19.33
2018-11-06T03:49:52.607Z,16.53
2018-11-06T03:52:21.355Z,17.87
2018-11-06T03:54:50.191Z,17.17
2018-11-06T03:57:18.959Z,18.23
2018-11-06T03:59:47.849Z,20.50
2018-11-06T04:02:16.919Z,17.47
2018-11-06T04:04:45.776Z,18.23
2018-11-06T04:07:14.602Z,17.47
2018-11-06T04:09:43.515Z,17.03
2018-11-06T04:12:12.577Z,18.90
2018-11-06T04:14:41.385Z,16.30
2018-11-06T04:17:10.856Z,15.83
2018-11-06T04:19:40.610Z,19.50
2018-11-06T04:22:09.488Z,16.73
2018-11-06T04:24:38.134Z,16.63
2018-11-06T04:27:06.832Z,17.50
2018-11-06T04:29:35.566Z,16.23
2018-11-06T04:32:04.178Z,15.90
2018-11-06T04:34:32.783Z,16.17
2018-11-06T04:37:01.529Z,16.70
2018-11-06T04:39:30.125Z,16.07
2018-11-06T04:41:58.842Z,19.73
2018-11-06T04:44:27.718Z,16.50
2018-11-06T04:46:56.593Z,18.50
2018-11-06T04:49:25.350Z,20.33
2018-11-06T04:51:55.494Z,16.33
2018-11-06T04:54:24.240Z,17.30
2018-11-06T04:56:53.000Z,16.57
2018-11-06T04:59:21.860Z,17.27
2018-11-06T05:01:50.675Z,18.00
2018-11-06T05:04:19.733Z,16.17
2018-11-06T05:06:48.581Z,17.50
2018-11-06T05:09:17.564Z,16.63
2018-11-06T05:11:46.346Z,16.10
2018-11-06T05:14:18.702Z,16.90
2018-11-06T05:16:47.512Z,17.43
2018-11-06T05:19:16.406Z,16.63
2018-11-06T05:21:45.177Z,16.20
2018-11-06T05:24:13.958Z,14.97
2018-11-06T05:26:42.698Z,15.77
2018-11-06T05:29:11.622Z,16.17
2018-11-06T05:31:40.369Z,17.17
2018-11-06T05:34:09.235Z,15.77
2018-11-06T05:36:38.225Z,15.53
2018-11-06T05:39:09.195Z,15.33
2018-11-06T05:41:37.823Z,18.43
2018-11-06T05:44:06.625Z,15.73
2018-11-06T05:46:35.210Z,16.10
2018-11-06T05:49:03.803Z,16.33
2018-11-06T05:51:32.545Z,15.77
2018-11-06T05:54:01.205Z,16.13
2018-11-06T05:56:29.991Z,17.50
2018-11-06T05:58:58.741Z,16.87
2018-11-06T06:01:27.725Z,16.50
2018-11-06T06:03:57.343Z,17.40
2018-11-06T06:06:26.206Z,16.07
2018-11-06T06:08:54.972Z,16.43
2018-11-06T06:11:23.802Z,16.17
2018-11-06T06:13:54.385Z,14.87
2018-11-06T06:16:24.555Z,15.13
2018-11-06T06:19:00.078Z,14.87
2018-11-06T06:21:34.100Z,15.73
2018-11-06T06:24:02.980Z,16.00
2018-11-06T06:26:31.788Z,14.87
2018-11-06T06:29:01.095Z,15.90
2018-11-06T06:31:42.794Z,17.50
2018-11-06T06:34:11.555Z,16.53
2018-11-06T06:36:40.320Z,15.70
2018-11-06T06:39:10.097Z,14.63
2018-11-06T06:41:41.400Z,13.53
2018-11-06T06:44:10.119Z,15.60
2018-11-06T06:46:38.909Z,14.00
2018-11-06T06:49:07.951Z,13.90
2018-11-06T06:51:36.903Z,14.07
2018-11-06T06:54:05.983Z,18.27
2018-11-06T06:56:34.664Z,13.93
2018-11-06T06:59:04.112Z,14.33
2018-11-06T07:01:33.152Z,15.07
2018-11-06T07:04:02.072Z,13.67
2018-11-06T07:06:30.846Z,14.00
2018-11-06T07:09:03.866Z,13.17
2018-11-06T07:11:32.711Z,16.47
2018-11-06T07:14:01.641Z,15.10
2018-11-06T07:16:30.577Z,14.60
2018-11-06T07:18:59.464Z,18.57
2018-11-06T07:21:43.316Z,16.07
2018-11-06T07:24:12.210Z,16.83
2018-11-06T07:26:40.937Z,13.60
2018-11-06T07:29:17.780Z,13.90
2018-11-06T07:31:46.443Z,13.60
2018-11-06T07:34:17.128Z,15.93
2018-11-06T07:36:46.349Z,14.27
2018-11-06T07:39:15.564Z,13.47
2018-11-06T07:41:44.813Z,12.27
2018-11-06T07:44:27.906Z,13.93
2018-11-06T07:46:56.742Z,13.47
2018-11-06T07:49:25.508Z,13.43
2018-11-06T07:51:54.449Z,12.50
2018-11-06T07:54:27.925Z,12.27
2018-11-06T07:57:25.748Z,12.73
2018-11-06T07:59:54.949Z,14.80
2018-11-06T08:02:23.880Z,14.20
2018-11-06T08:04:52.762Z,12.40
2018-11-06T08:07:21.670Z,11.33
2018-11-06T08:09:50.455Z,11.97
2018-11-06T08:12:19.235Z,13.80
2018-11-06T08:14:48.136Z,11.30
2018-11-06T08:17:24.725Z,11.33
2018-11-06T08:19:53.975Z,13.63
2018-11-06T08:22:22.885Z,12.77
2018-11-06T08:24:51.963Z,14.27
2018-11-06T08:27:21.024Z,14.77
2018-11-06T08:30:00.674Z,12.07
2018-11-06T08:32:29.924Z,12.37
2018-11-06T08:34:58.538Z,12.47
2018-11-06T08:37:27.454Z,12.07
2018-11-06T08:40:00.597Z,12.83
2018-11-06T08:42:35.417Z,11.10
2018-11-06T08:45:05.438Z,12.57
2018-11-06T08:47:34.350Z,12.93
2018-11-06T08:50:10.212Z,11.12
2018-11-06T08:52:40.448Z,13.57
2018-11-06T08:55:10.663Z,11.23
2018-11-06T08:57:42.321Z,15.77
2018-11-06T09:00:17.977Z,12.05
2018-11-06T09:02:51.592Z,11.20
2018-11-06T09:05:20.404Z,11.30
2018-11-06T09:07:56.473Z,11.03
2018-11-06T09:10:27.030Z,12.50
2018-11-06T09:13:00.268Z,11.43
2018-11-06T09:15:33.125Z,11.57
2018-11-06T09:18:02.666Z,11.90
2018-11-06T09:20:31.627Z,11.03
2018-11-06T09:23:19.769Z,12.00
2018-11-06T09:25:50.064Z,12.47
2018-11-06T09:28:18.931Z,10.03
2018-11-06T09:33:46.450Z,10.90
2018-11-06T09:36:16.713Z,9.83
2018-11-06T09:38:52.721Z,9.60
2018-11-06T09:41:27.238Z,9.70
2018-11-06T09:44:00.941Z,9.30
2018-11-06T09:46:31.939Z,10.17
2018-11-06T09:49:09.503Z,9.33
2018-11-06T09:51:44.476Z,9.20
2018-11-06T09:54:13.191Z,9.20
2018-11-06T09:56:41.932Z,10.13
2018-11-06T09:59:10.963Z,9.30
2018-11-06T10:01:40.504Z,10.30
2018-11-06T10:04:17.047Z,11.30
2018-11-06T10:06:56.780Z,10.13
2018-11-06T10:09:28.418Z,9.33
2018-11-06T10:11:58.761Z,9.30
2018-11-06T10:14:27.350Z,10.20
2018-11-06T10:16:56.652Z,10.67
2018-11-06T10:19:30.399Z,9.97
2018-11-06T10:21:59.328Z,9.47
2018-11-06T10:24:28.838Z,11.90
2018-11-06T10:26:57.534Z,11.87
2018-11-06T10:29:26.277Z,10.13
2018-11-06T10:31:56.238Z,9.67
2018-11-06T10:34:25.507Z,9.87
2018-11-06T10:36:54.383Z,11.30
2018-11-06T10:39:33.715Z,8.80
2018-11-06T10:42:05.446Z,10.40
2018-11-06T10:44:34.701Z,8.67
2018-11-06T10:50:37.400Z,9.47
2018-11-06T10:53:07.688Z,9.67
2018-11-06T10:55:36.601Z,8.43
2018-11-06T10:58:06.769Z,8.30
2018-11-06T11:00:45.670Z,10.70
2018-11-06T11:03:19.880Z,8.80
2018-11-06T11:05:53.238Z,8.80
2018-11-06T11:08:23.322Z,10.93
2018-11-06T11:10:53.353Z,13.03
2018-11-06T11:13:22.187Z,11.27
2018-11-06T11:15:59.581Z,10.93
2018-11-06T11:18:30.661Z,8.90
2018-11-06T11:20:59.337Z,8.63
2018-11-06T11:23:33.068Z,9.20
2018-11-06T11:26:03.065Z,8.87
2018-11-06T11:28:37.431Z,9.50
2018-11-06T11:31:11.489Z,7.13
2018-11-06T11:33:42.611Z,10.77
2018-11-06T11:36:12.637Z,7.67
2018-11-06T11:38:43.518Z,8.60
2018-11-06T11:41:12.323Z,8.10
2018-11-06T11:43:41.574Z,11.07
2018-11-06T11:46:13.547Z,6.90
2018-11-06T11:48:42.352Z,7.65
2018-11-06T11:51:14.483Z,8.00
2018-11-06T11:53:43.943Z,7.62
2018-11-06T11:56:14.923Z,6.90
2018-11-06T11:58:43.997Z,8.23
2018-11-06T12:01:12.774Z,7.20
2018-11-06T12:03:42.244Z,7.03
2018-11-06T12:06:17.188Z,6.40
2018-11-06T12:08:46.123Z,6.43
2018-11-06T12:11:15.016Z,8.67
2018-11-06T12:13:43.810Z,8.27
2018-11-06T12:16:13.204Z,6.37
2018-11-06T12:18:41.748Z,5.63
2018-11-06T12:21:10.372Z,6.97
2018-11-06T12:23:39.088Z,7.40
2018-11-06T12:26:08.585Z,6.43
2018-11-06T12:28:40.954Z,5.77
2018-11-06T12:31:09.990Z,6.27
2018-11-06T12:33:39.146Z,5.43
2018-11-06T12:36:19.433Z,4.00
2018-11-06T12:38:48.414Z,4.00
2018-11-06T12:41:17.702Z,4.83
2018-11-06T12:43:47.548Z,8.93
2018-11-06T12:46:17.589Z,5.47
2018-11-06T12:48:46.532Z,5.47
2018-11-06T12:51:16.974Z,6.50
2018-11-06T12:53:50.455Z,4.40
2018-11-06T12:56:20.036Z,3.13
2018-11-06T12:58:48.495Z,5.53
2018-11-06T13:01:17.693Z,5.50
2018-11-06T13:03:46.459Z,5.47
2018-11-06T13:06:14.988Z,4.13
2018-11-06T13:08:45.236Z,4.57
2018-11-06T13:11:14.373Z,5.83
2018-11-06T13:13:46.259Z,5.43
2018-11-06T13:16:14.844Z,4.27
2018-11-06T13:18:49.953Z,4.30
2018-11-06T13:21:20.031Z,2.83
2018-11-06T13:23:48.587Z,3.53
2018-11-06T13:26:17.632Z,2.60
2018-11-06T13:28:46.152Z,3.83
2018-11-06T13:31:15.141Z,3.03
2018-11-06T13:33:45.599Z,4.00
2018-11-06T13:36:17.488Z,3.40
2018-11-06T13:38:46.573Z,2.10
2018-11-06T13:41:17.029Z,2.23
2018-11-06T13:43:45.727Z,3.67
2018-11-06T13:46:14.579Z,2.62
2018-11-06T13:48:43.181Z,2.17
2018-11-06T13:51:12.381Z,3.70
2018-11-06T13:53:41.555Z,3.80
2018-11-06T13:56:11.713Z,2.60
2018-11-06T13:58:40.362Z,2.47
2018-11-06T14:01:08.945Z,2.60
2018-11-06T14:03:37.968Z,2.73
2018-11-06T14:06:07.374Z,3.70
2018-11-06T14:08:36.546Z,3.03
2018-11-06T14:11:05.912Z,2.20
2018-11-06T14:13:34.878Z,3.87
2018-11-06T14:16:03.786Z,3.20
2018-11-06T14:18:32.667Z,2.53
2018-11-06T14:21:01.446Z,3.23
2018-11-06T14:23:30.853Z,4.67
2018-11-06T14:26:06.324Z,5.93
2018-11-06T14:28:43.944Z,2.23
2018-11-06T14:31:12.827Z,2.27
2018-11-06T14:34:17.974Z,2.60
2018-11-06T14:36:47.238Z,2.60
2018-11-06T14:39:22.114Z,2.90
2018-11-06T14:41:52.182Z,2.83
2018-11-06T14:44:23.151Z,3.77
2018-11-06T14:46:51.908Z,4.90
2018-11-06T14:49:27.554Z,4.10
2018-11-06T14:51:57.431Z,2.50
2018-11-06T14:54:27.134Z,2.67
2018-11-06T14:56:57.030Z,3.67
2018-11-06T14:59:26.072Z,5.00
2018-11-06T15:01:55.167Z,4.20
2018-11-06T15:04:23.828Z,5.00
2018-11-06T15:06:52.443Z,2.83
2018-11-06T15:09:23.155Z,3.50
2018-11-06T15:11:52.692Z,4.63
2018-11-06T15:14:23.567Z,5.93
2018-11-06T15:16:57.137Z,14.67
2018-11-06T15:19:26.613Z,4.33
2018-11-06T15:22:03.649Z,10.77
2018-11-06T15:24:34.958Z,4.00
2018-11-06T15:27:04.730Z,5.97
2018-11-06T15:29:36.891Z,4.60
2018-11-06T15:32:05.790Z,5.57
2018-11-06T15:34:34.403Z,8.53
2018-11-06T15:37:11.093Z,7.07
2018-11-06T15:39:40.029Z,9.53
2018-11-06T15:42:09.313Z,4.67
2018-11-06T15:44:37.889Z,4.03
2018-11-06T15:47:06.465Z,6.10
2018-11-06T15:49:35.205Z,6.03
2018-11-06T15:52:03.881Z,4.33
2018-11-06T15:54:41.421Z,4.43
2018-11-06T15:57:10.069Z,5.80
2018-11-06T15:59:39.402Z,5.37
2018-11-06T16:02:08.317Z,3.93
2018-11-06T16:04:42.990Z,4.27
2018-11-06T16:07:12.022Z,13.97
2018-11-06T16:12:17.806Z,5.07
2018-11-06T16:14:55.430Z,4.23
2018-11-06T16:17:24.638Z,7.10
2018-11-06T16:19:53.350Z,3.13
2018-11-06T16:22:22.656Z,3.73
2018-11-06T16:25:00.040Z,4.53
2018-11-06T16:27:33.123Z,6.63
2018-11-06T16:30:04.254Z,4.23
2018-11-06T16:32:34.511Z,3.77
2018-11-06T16:35:03.734Z,3.43
2018-11-06T16:37:32.700Z,4.23
2018-11-06T16:40:01.404Z,5.93
2018-11-06T16:42:29.972Z,4.73
2018-11-06T16:44:58.590Z,4.00
2018-11-06T16:47:27.151Z,5.90
2018-11-06T16:49:56.185Z,5.03
2018-11-06T16:52:24.951Z,6.23
2018-11-06T16:54:53.604Z,5.47
2018-11-06T16:57:22.458Z,9.57
2018-11-06T16:59:51.145Z,6.23
2018-11-06T17:02:19.975Z,7.00
2018-11-06T17:04:48.641Z,10.33
2018-11-06T17:07:17.450Z,8.23
2018-11-06T17:09:46.069Z,3.90
2018-11-06T17:12:14.757Z,7.40
2018-11-06T17:14:43.457Z,4.27
2018-11-06T17:17:13.094Z,5.53
2018-11-06T17:19:41.850Z,5.53
2018-11-06T17:22:10.749Z,5.13
2018-11-06T17:24:39.554Z,5.33
2018-11-06T17:27:08.276Z,4.17
2018-11-06T17:29:37.024Z,4.73
2018-11-06T17:32:05.883Z,5.40
2018-11-06T17:34:34.852Z,5.30
2018-11-06T17:37:05.039Z,7.37
2018-11-06T17:39:33.712Z,6.13
2018-11-06T17:42:02.977Z,4.97
2018-11-06T17:44:32.290Z,7.13
2018-11-06T17:47:00.941Z,6.97
2018-11-06T17:49:30.061Z,5.40
2018-11-06T17:51:58.769Z,4.87
2018-11-06T17:54:27.851Z,6.30
2018-11-06T17:56:56.669Z,5.70
2018-11-06T17:59:26.084Z,5.33
2018-11-06T18:01:54.818Z,6.77
2018-11-06T18:04:23.642Z,4.83
2018-11-06T18:06:52.269Z,6.83
2018-11-06T18:09:21.024Z,5.87
2018-11-06T18:11:52.136Z,5.57
2018-11-06T18:14:21.129Z,4.37
2018-11-06T18:16:49.939Z,5.07
2018-11-06T18:19:18.993Z,6.00
2018-11-06T18:21:47.824Z,6.13
2018-11-06T18:24:16.908Z,4.50
2018-11-06T18:26:45.967Z,5.50
2018-11-06T18:29:14.888Z,5.77
2018-11-06T18:31:43.680Z,5.40
2018-11-06T18:34:12.444Z,4.83
2018-11-06T18:36:41.991Z,6.50
2018-11-06T18:39:12.523Z,5.70
2018-11-06T18:41:41.901Z,5.13
2018-11-06T18:44:10.929Z,4.87
2018-11-06T18:46:40.053Z,11.40
2018-11-06T18:49:09.346Z,6.17
2018-11-06T18:51:38.249Z,4.50
2018-11-06T18:54:08.014Z,5.20
2018-11-06T18:56:37.514Z,6.50
2018-11-06T18:59:06.993Z,5.47
2018-11-06T19:01:36.456Z,6.23
2018-11-06T19:04:05.891Z,6.13
2018-11-06T19:06:35.535Z,4.83
2018-11-06T19:09:06.523Z,5.87
2018-11-06T19:11:35.393Z,5.13
2018-11-06T19:14:04.641Z,4.95
2018-11-06T19:16:33.782Z,6.63
2018-11-06T19:19:02.464Z,6.63
2018-11-06T19:21:37.630Z,6.67
2018-11-06T19:24:06.531Z,4.43
2018-11-06T19:26:35.633Z,4.80
2018-11-06T19:29:04.741Z,4.77
2018-11-06T19:31:33.692Z,4.43
2018-11-06T19:34:02.645Z,7.70
2018-11-06T19:36:31.523Z,4.90
2018-11-06T19:39:00.365Z,4.40
2018-11-06T19:41:29.335Z,4.87
2018-11-06T19:43:58.589Z,4.20
2018-11-06T19:46:27.758Z,3.97
2018-11-06T19:48:56.827Z,5.60
2018-11-06T19:51:25.585Z,4.30
2018-11-06T19:53:54.296Z,4.67
2018-11-06T19:56:24.341Z,4.37
2018-11-06T19:58:53.350Z,3.70
2018-11-06T20:01:22.382Z,5.20
2018-11-06T20:03:51.287Z,3.97
2018-11-06T20:06:20.154Z,3.73
2018-11-06T20:08:50.781Z,5.47
2018-11-06T20:11:19.865Z,3.93
2018-11-06T20:13:48.777Z,4.37
2018-11-06T20:16:38.093Z,4.80
2018-11-06T20:19:07.569Z,3.50
2018-11-06T20:21:36.491Z,3.10
2018-11-06T20:24:05.585Z,3.10
2018-11-06T20:26:34.600Z,2.67
2018-11-06T20:29:03.713Z,3.30
2018-11-06T20:31:32.465Z,2.47
2018-11-06T20:34:01.352Z,3.37
2018-11-06T20:36:30.108Z,2.90
2018-11-06T20:38:59.113Z,3.07
2018-11-06T20:41:27.801Z,2.33
2018-11-06T20:43:58.552Z,2.97
2018-11-06T20:46:27.479Z,3.60
2018-11-06T20:48:56.455Z,2.10
2018-11-06T20:51:25.065Z,2.73
2018-11-06T20:53:53.940Z,2.50
2018-11-06T20:56:23.174Z,2.30
2018-11-06T20:58:52.182Z,2.67
2018-11-06T21:01:21.291Z,3.10
2018-11-06T21:03:50.007Z,2.60
2018-11-06T21:06:18.897Z,5.17
2018-11-06T21:08:48.389Z,1.83
2018-11-06T21:11:17.157Z,1.87
2018-11-06T21:13:45.968Z,2.33
2018-11-06T21:16:21.072Z,3.07
2018-11-06T21:18:50.546Z,3.30
2018-11-06T21:21:19.518Z,3.33
2018-11-06T21:23:48.254Z,3.03
2018-11-06T21:26:17.559Z,2.67
2018-11-06T21:28:47.441Z,3.20
2018-11-06T21:31:16.554Z,2.70
2018-11-06T21:33:45.567Z,2.97
2018-11-06T21:36:14.423Z,2.40
2018-11-06T21:38:43.582Z,2.20
2018-11-06T21:41:12.880Z,2.40
2018-11-06T21:43:41.663Z,2.70
2018-11-06T21:46:10.494Z,2.20
2018-11-06T21:48:39.656Z,2.53
2018-11-06T21:51:08.625Z,2.43
2018-11-06T21:53:37.352Z,2.40
2018-11-06T21:56:06.373Z,2.27
2018-11-06T21:58:35.453Z,4.13
2018-11-06T22:01:04.476Z,2.70
2018-11-06T22:03:33.402Z,3.23
2018-11-06T22:06:02.287Z,2.70
2018-11-06T22:08:31.140Z,3.77
2018-11-06T22:11:00.237Z,2.83
2018-11-06T22:13:29.158Z,2.97
2018-11-06T22:15:58.875Z,4.17
2018-11-06T22:18:28.067Z,3.03
2018-11-06T22:20:56.938Z,2.93
2018-11-06T22:23:26.206Z,2.43
2018-11-06T22:25:54.954Z,2.40
2018-11-06T22:28:23.820Z,5.07
2018-11-06T22:30:52.717Z,2.53
2018-11-06T22:33:21.500Z,3.43
2018-11-06T22:35:50.510Z,3.53
2018-11-06T22:38:19.293Z,2.40
2018-11-06T22:40:48.210Z,2.40
2018-11-06T22:43:16.917Z,3.30
2018-11-06T22:45:45.812Z,2.50
2018-11-06T22:48:14.778Z,2.90
2018-11-06T22:50:44.382Z,2.63
2018-11-06T22:53:13.377Z,2.80
2018-11-06T22:55:42.277Z,3.70
2018-11-06T22:58:10.898Z,3.50
2018-11-06T23:00:45.018Z,2.50
2018-11-06T23:03:15.165Z,4.57
2018-11-06T23:05:43.977Z,2.60
2018-11-06T23:08:17.703Z,2.50
2018-11-06T23:10:46.642Z,2.53
2018-11-06T23:13:15.273Z,3.27
2018-11-06T23:15:43.913Z,2.60
2018-11-06T23:18:12.556Z,2.77
2018-11-06T23:20:41.274Z,2.50
2018-11-06T23:23:09.840Z,2.57
2018-11-06T23:25:39.183Z,2.77
2018-11-06T23:28:08.170Z,3.23
2018-11-06T23:30:36.733Z,2.83
2018-11-06T23:33:05.541Z,2.10
2018-11-06T23:35:34.428Z,2.23
2018-11-06T23:38:04.019Z,2.73
2018-11-06T23:40:33.287Z,1.77
2018-11-06T23:43:02.013Z,1.60
2018-11-06T23:45:30.488Z,2.17
2018-11-06T23:47:59.167Z,1.87
2018-11-06T23:50:27.885Z,2.40
2018-11-06T23:52:56.464Z,2.50
2018-11-06T23:55:25.559Z,1.77
2018-11-06T23:57:54.282Z,2.57
